createdAt,value
2023-01-02T00:01:08.994Z,19.62
2023-01-02T00:03:36.760Z,19.40
2023-01-02T00:06:05.199Z,21.12
2023-01-02T00:08:33.146Z,19.98
2023-01-02T00:11:00.845Z,20.25
2023-01-02T00:13:28.684Z,19.55
2023-01-02T00:15:56.154Z,21.70
2023-01-02T00:18:23.872Z,23.90
2023-01-02T00:20:51.314Z,21.65
2023-01-02T00:23:18.747Z,18.58
2023-01-02T00:25:48.592Z,18.58
2023-01-02T00:28:15.994Z,18.60
2023-01-02T00:30:43.388Z,20.67
2023-01-02T00:33:11.085Z,19.25
2023-01-02T00:35:38.923Z,19.00
2023-01-02T00:38:06.430Z,20.95
2023-01-02T00:40:34.730Z,21.35
2023-01-02T00:43:02.423Z,22.45
2023-01-02T00:45:29.863Z,19.83
2023-01-02T00:47:57.613Z,19.73
2023-01-02T00:50:25.015Z,22.52
2023-01-02T00:52:52.443Z,22.60
2023-01-02T00:55:20.346Z,21.58
2023-01-02T00:57:47.739Z,20.35
2023-01-02T01:00:21.615Z,19.00
2023-01-02T01:02:58.636Z,18.08
2023-01-02T01:05:26.629Z,16.27
2023-01-02T01:07:55.581Z,17.40
2023-01-02T01:10:24.081Z,17.23
2023-01-02T01:12:51.681Z,16.98
2023-01-02T01:15:19.386Z,17.40
2023-01-02T01:17:46.865Z,19.10
2023-01-02T01:20:14.330Z,20.60
2023-01-02T01:22:42.051Z,20.55
2023-01-02T01:25:09.792Z,20.48
2023-01-02T01:27:37.204Z,18.33
2023-01-02T01:30:06.332Z,20.00
2023-01-02T01:32:34.955Z,18.20
2023-01-02T01:35:02.554Z,18.37
2023-01-02T01:37:30.375Z,19.33
2023-01-02T01:39:57.734Z,19.37
2023-01-02T01:42:25.101Z,19.62
2023-01-02T01:44:54.607Z,19.83
2023-01-02T01:47:53.380Z,20.20
2023-01-02T01:50:30.011Z,21.08
2023-01-02T01:53:18.199Z,21.30
2023-01-02T01:55:51.013Z,18.85
2023-01-02T01:58:25.159Z,19.02
2023-01-02T02:00:53.214Z,19.48
2023-01-02T02:03:24.410Z,21.48
2023-01-02T02:05:52.211Z,19.90
2023-01-02T02:08:23.709Z,18.83
2023-01-02T02:10:52.066Z,21.23
2023-01-02T02:13:21.610Z,20.08
2023-01-02T02:16:49.241Z,22.25
2023-01-02T02:19:44.368Z,23.52
2023-01-02T02:22:14.377Z,23.20
2023-01-02T02:24:56.791Z,20.58
2023-01-02T02:27:51.949Z,22.65
2023-01-02T02:30:25.968Z,23.30
2023-01-02T02:33:18.478Z,20.20
2023-01-02T02:35:55.009Z,21.92
2023-01-02T02:38:28.093Z,23.98
2023-01-02T02:41:04.778Z,21.60
2023-01-02T02:43:50.907Z,23.10
2023-01-02T02:46:52.011Z,23.40
2023-01-02T02:49:37.788Z,23.62
2023-01-02T02:52:08.597Z,21.92
2023-01-02T02:54:49.288Z,26.33
2023-01-02T02:57:17.972Z,25.95
2023-01-02T02:59:46.110Z,23.02
2023-01-02T03:02:16.338Z,23.12
2023-01-02T03:04:48.054Z,21.75
2023-01-02T03:07:21.400Z,22.13
2023-01-02T03:10:16.191Z,24.25
2023-01-02T03:12:55.529Z,23.83
2023-01-02T03:15:36.151Z,20.90
2023-01-02T03:18:30.650Z,23.30
2023-01-02T03:21:04.576Z,21.75
2023-01-02T03:23:37.053Z,22.75
2023-01-02T03:26:05.287Z,22.87
2023-01-02T03:28:32.909Z,21.90
2023-01-02T03:31:01.930Z,20.90
2023-01-02T03:33:32.780Z,21.00
2023-01-02T03:36:04.073Z,24.12
2023-01-02T03:38:44.798Z,22.50
2023-01-02T03:41:19.086Z,22.92
2023-01-02T03:43:54.751Z,22.35
2023-01-02T03:46:31.573Z,23.50
2023-01-02T03:49:07.295Z,23.27
2023-01-02T03:51:35.903Z,22.25
2023-01-02T03:54:04.648Z,23.73
2023-01-02T03:56:42.177Z,22.85
2023-01-02T03:59:16.649Z,22.75
2023-01-02T04:01:52.335Z,21.27
2023-01-02T04:04:23.068Z,22.05
2023-01-02T04:06:56.091Z,21.90
2023-01-02T04:09:27.076Z,20.55
2023-01-02T04:11:59.396Z,21.33
2023-01-02T04:14:40.754Z,21.80
2023-01-02T04:17:08.716Z,20.83
2023-01-02T04:19:43.297Z,20.60
2023-01-02T04:22:14.626Z,20.62
2023-01-02T04:24:46.877Z,23.15
2023-01-02T04:27:19.318Z,23.10
2023-01-02T04:29:47.012Z,21.52
2023-01-02T04:32:21.339Z,21.67
2023-01-02T04:34:49.875Z,21.65
2023-01-02T04:37:33.906Z,21.50
2023-01-02T04:40:11.338Z,21.25
2023-01-02T04:42:39.055Z,21.92
2023-01-02T04:45:07.649Z,21.67
2023-01-02T04:47:35.281Z,20.55
2023-01-02T04:50:05.138Z,21.73
2023-01-02T04:52:36.968Z,21.25
2023-01-02T04:55:08.410Z,21.75
2023-01-02T04:57:37.292Z,21.55
2023-01-02T05:00:06.625Z,20.08
2023-01-02T05:02:38.054Z,21.83
2023-01-02T05:05:09.465Z,21.35
2023-01-02T05:07:37.599Z,21.67
2023-01-02T05:10:06.378Z,21.00
2023-01-02T05:12:35.497Z,21.15
2023-01-02T05:15:04.450Z,20.15
2023-01-02T05:17:40.107Z,21.37
2023-01-02T05:20:10.471Z,21.23
2023-01-02T05:22:58.745Z,20.67
2023-01-02T05:25:27.371Z,21.37
2023-01-02T05:27:55.450Z,21.50
2023-01-02T05:30:23.372Z,20.65
2023-01-02T05:32:51.192Z,20.25
2023-01-02T05:35:18.705Z,21.05
2023-01-02T05:37:46.221Z,20.23
2023-01-02T05:40:13.932Z,21.50
2023-01-02T05:42:41.496Z,20.30
2023-01-02T05:45:09.246Z,19.75
2023-01-02T05:47:38.670Z,19.90
2023-01-02T05:50:07.847Z,21.10
2023-01-02T05:52:37.642Z,18.62
2023-01-02T05:55:09.575Z,19.15
2023-01-02T05:57:37.026Z,19.25
2023-01-02T06:00:04.690Z,20.15
2023-01-02T06:02:43.153Z,18.90
2023-01-02T06:05:15.486Z,17.52
2023-01-02T06:07:44.333Z,17.87
2023-01-02T06:10:11.911Z,19.02
2023-01-02T06:12:39.604Z,20.37
2023-01-02T06:15:08.926Z,20.70
2023-01-02T06:17:36.376Z,18.02
2023-01-02T06:20:04.709Z,18.65
2023-01-02T06:22:32.122Z,17.73
2023-01-02T06:24:59.542Z,19.00
2023-01-02T06:27:27.239Z,17.87
2023-01-02T06:29:54.675Z,18.60
2023-01-02T06:32:22.106Z,18.73
2023-01-02T06:34:49.801Z,18.77
2023-01-02T06:37:17.210Z,18.40
2023-01-02T06:39:44.678Z,20.08
2023-01-02T06:42:12.626Z,19.70
2023-01-02T06:44:41.365Z,20.17
2023-01-02T06:47:08.837Z,17.42
2023-01-02T06:49:36.823Z,18.42
2023-01-02T06:52:04.498Z,19.05
2023-01-02T06:54:32.875Z,18.05
2023-01-02T06:57:00.930Z,17.77
2023-01-02T06:59:28.355Z,18.67
2023-01-02T07:01:55.905Z,17.95
2023-01-02T07:04:23.722Z,19.10
2023-01-02T07:06:51.272Z,18.58
2023-01-02T07:09:18.817Z,19.67
2023-01-02T07:11:46.780Z,18.48
2023-01-02T07:14:14.228Z,19.15
2023-01-02T07:16:41.707Z,17.70
2023-01-02T07:19:09.458Z,18.27
2023-01-02T07:21:37.042Z,16.85
2023-01-02T07:24:04.722Z,18.83
2023-01-02T07:26:32.498Z,19.00
2023-01-02T07:29:00.108Z,19.67
2023-01-02T07:31:29.682Z,18.17
2023-01-02T07:33:58.357Z,17.83
2023-01-02T07:36:25.809Z,19.65
2023-01-02T07:38:54.997Z,18.80
2023-01-02T07:41:24.335Z,19.60
2023-01-02T07:43:54.204Z,18.92
2023-01-02T07:46:23.468Z,18.05
2023-01-02T07:48:51.321Z,17.42
2023-01-02T07:51:26.267Z,19.02
2023-01-02T07:53:56.342Z,18.55
2023-01-02T07:56:25.366Z,21.42
2023-01-02T07:58:53.298Z,20.08
2023-01-02T08:01:21.186Z,19.60
2023-01-02T08:03:49.167Z,19.15
2023-01-02T08:06:17.892Z,19.20
2023-01-02T08:08:45.858Z,19.98
2023-01-02T08:11:19.516Z,20.20
2023-01-02T08:13:47.374Z,18.58
2023-01-02T08:16:17.341Z,18.27
2023-01-02T08:18:46.788Z,18.33
2023-01-02T08:21:14.714Z,19.60
2023-01-02T08:23:42.476Z,19.58
2023-01-02T08:26:10.929Z,19.17
2023-01-02T08:28:40.007Z,18.02
2023-01-02T08:31:13.614Z,18.23
2023-01-02T08:33:41.502Z,19.10
2023-01-02T08:36:09.592Z,19.40
2023-01-02T08:38:37.082Z,19.37
2023-01-02T08:41:05.506Z,20.27
2023-01-02T08:43:35.366Z,17.73
2023-01-02T08:46:04.835Z,18.62
2023-01-02T08:48:33.320Z,17.87
2023-01-02T08:51:01.236Z,18.85
2023-01-02T08:53:29.694Z,18.90
2023-01-02T08:56:19.767Z,19.60
2023-01-02T08:58:54.433Z,18.67
2023-01-02T09:01:23.586Z,17.90
2023-01-02T09:03:52.222Z,18.02
2023-01-02T09:06:22.315Z,18.58
2023-01-02T09:08:52.871Z,18.02
2023-01-02T09:11:30.111Z,20.77
2023-01-02T09:13:58.430Z,18.98
2023-01-02T09:16:28.753Z,17.75
2023-01-02T09:18:57.963Z,18.83
2023-01-02T09:21:26.019Z,18.62
2023-01-02T09:23:53.436Z,19.95
2023-01-02T09:26:21.445Z,19.73
2023-01-02T09:28:49.637Z,18.20
2023-01-02T09:31:18.101Z,19.12
2023-01-02T09:33:47.013Z,19.87
2023-01-02T09:36:17.322Z,18.42
2023-01-02T09:38:44.793Z,19.30
2023-01-02T09:41:27.125Z,18.55
2023-01-02T09:44:15.978Z,18.00
2023-01-02T09:46:43.393Z,17.65
2023-01-02T09:49:22.411Z,17.87
2023-01-02T09:51:50.393Z,17.52
2023-01-02T09:54:30.685Z,18.17
2023-01-02T09:57:27.269Z,19.12
2023-01-02T10:00:05.599Z,18.95
2023-01-02T10:02:55.339Z,17.27
2023-01-02T10:05:50.105Z,17.20
2023-01-02T10:08:39.325Z,17.52
2023-01-02T10:11:31.551Z,17.92
2023-01-02T10:14:20.825Z,18.77
2023-01-02T10:16:51.675Z,18.33
2023-01-02T10:19:26.880Z,17.40
2023-01-02T10:21:58.663Z,18.40
2023-01-02T10:24:38.820Z,17.98
2023-01-02T10:27:17.503Z,18.40
2023-01-02T10:30:03.129Z,17.98
2023-01-02T10:32:32.941Z,18.83
2023-01-02T10:35:07.547Z,18.20
2023-01-02T10:37:35.572Z,18.15
2023-01-02T10:40:04.604Z,18.45
2023-01-02T10:42:33.562Z,17.35
2023-01-02T10:45:01.485Z,18.77
2023-01-02T10:47:37.336Z,20.33
2023-01-02T10:50:15.030Z,19.55
2023-01-02T10:52:52.219Z,18.30
2023-01-02T10:55:39.987Z,18.00
2023-01-02T10:58:22.617Z,18.30
2023-01-02T11:00:52.238Z,17.87
2023-01-02T11:03:27.796Z,17.73
2023-01-02T11:05:59.388Z,16.80
2023-01-02T11:08:39.400Z,17.83
2023-01-02T11:11:18.242Z,18.08
2023-01-02T11:13:54.402Z,19.23
2023-01-02T11:16:24.628Z,18.23
2023-01-02T11:18:58.414Z,18.45
2023-01-02T11:21:29.069Z,19.00
2023-01-02T11:24:16.428Z,18.15
2023-01-02T11:26:46.834Z,18.27
2023-01-02T11:29:32.104Z,18.00
2023-01-02T11:32:02.175Z,17.55
2023-01-02T11:34:34.219Z,19.67
2023-01-02T11:37:02.803Z,19.23
2023-01-02T11:39:32.033Z,20.40
2023-01-02T11:42:18.394Z,26.95
2023-01-02T11:45:10.928Z,40.55
2023-01-02T11:47:50.221Z,27.70
2023-01-02T11:50:25.272Z,24.42
2023-01-02T11:53:02.418Z,30.58
2023-01-02T11:55:37.113Z,25.95
2023-01-02T11:58:25.172Z,21.50
2023-01-02T12:00:55.818Z,21.58
2023-01-02T12:03:26.789Z,20.27
2023-01-02T12:06:20.314Z,23.50
2023-01-02T12:09:13.554Z,18.80
2023-01-02T12:11:53.035Z,22.98
2023-01-02T12:14:24.723Z,23.45
2023-01-02T12:17:16.916Z,23.85
2023-01-02T12:20:00.457Z,20.27
2023-01-02T12:22:43.056Z,17.73
2023-01-02T12:25:16.549Z,18.62
2023-01-02T12:27:43.884Z,17.95
2023-01-02T12:30:16.859Z,17.67
2023-01-02T12:33:05.781Z,17.05
2023-01-02T12:35:41.266Z,17.48
2023-01-02T12:38:11.485Z,17.73
2023-01-02T12:41:11.914Z,17.55
2023-01-02T12:44:02.236Z,16.35
2023-01-02T12:46:39.020Z,16.20
2023-01-02T12:49:15.571Z,18.50
2023-01-02T12:52:03.099Z,21.65
2023-01-02T12:54:37.222Z,22.85
2023-01-02T12:57:04.845Z,18.30
2023-01-02T12:59:41.143Z,17.42
2023-01-02T13:02:46.531Z,16.73
2023-01-02T13:05:18.698Z,17.33
2023-01-02T13:07:53.442Z,20.20
2023-01-02T13:10:22.898Z,17.58
2023-01-02T13:12:50.655Z,28.77
2023-01-02T13:15:31.207Z,15.90
2023-01-02T13:18:17.597Z,18.27
2023-01-02T13:20:51.263Z,16.83
2023-01-02T13:23:29.458Z,16.52
2023-01-02T13:26:01.072Z,21.83
2023-01-02T13:28:29.103Z,18.45
2023-01-02T13:31:35.807Z,19.98
2023-01-02T13:33:55.205Z,15.50
2023-01-02T13:36:26.762Z,16.42
2023-01-02T13:39:04.171Z,17.80
2023-01-02T13:41:58.099Z,17.35
2023-01-02T13:44:33.125Z,24.15
2023-01-02T13:47:09.446Z,17.65
2023-01-02T13:49:37.281Z,17.15
2023-01-02T13:52:04.751Z,16.55
2023-01-02T13:54:37.499Z,17.55
2023-01-02T13:57:27.335Z,16.40
2023-01-02T13:59:59.635Z,16.23
2023-01-02T14:02:27.965Z,16.33
2023-01-02T14:04:55.830Z,16.50
2023-01-02T14:07:26.090Z,15.75
2023-01-02T14:10:32.605Z,18.00
2023-01-02T14:13:05.590Z,16.25
2023-01-02T14:15:37.931Z,16.85
2023-01-02T14:18:09.446Z,16.62
2023-01-02T14:20:43.649Z,16.52
2023-01-02T14:23:25.424Z,17.52
2023-01-02T14:25:53.125Z,16.17
2023-01-02T14:28:24.263Z,17.27
2023-01-02T14:30:52.166Z,18.33
2023-01-02T14:33:35.196Z,19.00
2023-01-02T14:36:08.441Z,18.50
2023-01-02T14:38:41.475Z,18.77
2023-01-02T14:42:08.747Z,18.23
2023-01-02T14:44:56.391Z,17.62
2023-01-02T14:47:36.244Z,18.52
2023-01-02T14:50:06.902Z,18.80
2023-01-02T14:52:43.002Z,18.50
2023-01-02T14:55:23.504Z,18.80
2023-01-02T14:57:53.364Z,18.33
2023-01-02T15:00:25.065Z,18.50
2023-01-02T15:03:14.709Z,19.80
2023-01-02T15:05:48.696Z,20.08
2023-01-02T15:08:20.210Z,19.50
2023-01-02T15:11:19.306Z,20.62
2023-01-02T15:14:03.884Z,19.67
2023-01-02T15:16:41.007Z,21.58
2023-01-02T15:19:23.474Z,21.83
2023-01-02T15:21:51.315Z,21.62
2023-01-02T15:24:26.964Z,20.85
2023-01-02T15:26:54.427Z,23.75
2023-01-02T15:29:27.120Z,23.25
2023-01-02T15:32:00.431Z,23.67
2023-01-02T15:34:30.862Z,23.75
2023-01-02T15:37:02.665Z,25.23
2023-01-02T15:39:39.787Z,24.87
2023-01-02T15:42:30.988Z,23.87
2023-01-02T15:45:11.331Z,24.55
2023-01-02T15:47:41.447Z,23.12
2023-01-02T15:50:24.548Z,26.48
2023-01-02T15:53:10.562Z,23.10
2023-01-02T15:55:39.862Z,23.92
2023-01-02T15:58:17.466Z,24.25
2023-01-02T16:00:45.969Z,24.33
2023-01-02T16:04:01.273Z,26.12
2023-01-02T16:06:41.540Z,27.33
2023-01-02T16:11:59.248Z,24.25
2023-01-02T16:14:44.905Z,23.30
2023-01-02T16:17:26.722Z,23.23
2023-01-02T16:19:59.887Z,24.65
2023-01-02T16:22:31.466Z,27.17
2023-01-02T16:25:19.587Z,28.98
2023-01-02T16:27:55.058Z,25.48
2023-01-02T16:30:32.804Z,23.90
2023-01-02T16:33:03.177Z,23.90
2023-01-02T16:35:34.568Z,22.85
2023-01-02T16:38:19.004Z,23.92
2023-01-02T16:40:59.966Z,23.45
2023-01-02T16:43:31.530Z,24.65
2023-01-02T16:46:00.349Z,24.23
2023-01-02T16:48:29.926Z,25.12
2023-01-02T16:50:58.397Z,24.75
2023-01-02T16:53:31.930Z,23.90
2023-01-02T16:55:59.833Z,27.08
2023-01-02T16:58:29.946Z,25.92
2023-01-02T17:00:57.725Z,22.95
2023-01-02T17:03:26.537Z,24.37
2023-01-02T17:06:01.590Z,24.05
2023-01-02T17:08:31.744Z,23.33
2023-01-02T17:11:00.219Z,26.02
2023-01-02T17:13:28.316Z,27.00
2023-01-02T17:15:56.313Z,27.45
2023-01-02T17:18:24.749Z,25.05
2023-01-02T17:20:52.238Z,26.80
2023-01-02T17:23:20.070Z,27.15
2023-01-02T17:25:48.119Z,30.58
2023-01-02T17:28:16.133Z,41.58
2023-01-02T17:30:45.095Z,29.15
2023-01-02T17:33:13.380Z,28.02
2023-01-02T17:35:40.792Z,27.13
2023-01-02T17:38:08.221Z,28.30
2023-01-02T17:40:37.468Z,27.80
2023-01-02T17:43:05.752Z,28.67
2023-01-02T17:45:33.302Z,27.40
2023-01-02T17:48:07.834Z,30.48
2023-01-02T17:50:37.841Z,35.17
2023-01-02T17:53:08.575Z,32.28
2023-01-02T17:55:36.191Z,29.63
2023-01-02T17:58:04.176Z,43.78
2023-01-02T18:00:33.373Z,40.30
2023-01-02T18:03:01.256Z,31.00
2023-01-02T18:05:28.926Z,27.85
2023-01-02T18:07:56.512Z,27.50
2023-01-02T18:10:29.146Z,27.50
2023-01-02T18:13:00.722Z,26.45
2023-01-02T18:15:28.953Z,26.87
2023-01-02T18:17:59.796Z,27.00
2023-01-02T18:20:28.644Z,27.30
2023-01-02T18:22:58.140Z,28.52
2023-01-02T18:25:30.094Z,26.12
2023-01-02T18:28:24.655Z,27.55
2023-01-02T18:30:58.010Z,31.33
2023-01-02T18:33:27.401Z,30.17
2023-01-02T18:36:02.781Z,31.30
2023-01-02T18:38:34.909Z,27.27
2023-01-02T18:41:26.264Z,28.05
2023-01-02T18:44:04.786Z,30.67
2023-01-02T18:47:04.334Z,29.65
2023-01-02T18:49:31.913Z,31.17
2023-01-02T18:52:11.760Z,29.05
2023-01-02T18:54:55.081Z,26.80
2023-01-02T18:57:23.346Z,27.35
2023-01-02T18:59:51.826Z,25.02
2023-01-02T19:02:38.426Z,28.77
2023-01-02T19:05:37.194Z,25.62
2023-01-02T19:08:08.537Z,25.65
2023-01-02T19:10:41.681Z,26.52
2023-01-02T19:13:26.569Z,25.37
2023-01-02T19:16:05.787Z,25.95
2023-01-02T19:18:49.145Z,24.27
2023-01-02T19:21:19.861Z,22.70
2023-01-02T19:24:16.587Z,24.17
2023-01-02T19:26:46.799Z,21.60
2023-01-02T19:29:18.857Z,21.52
2023-01-02T19:32:05.786Z,21.35
2023-01-02T19:34:45.638Z,22.85
2023-01-02T19:37:14.871Z,23.17
2023-01-02T19:39:51.828Z,24.73
2023-01-02T19:42:20.819Z,21.85
2023-01-02T19:44:56.681Z,25.70
2023-01-02T19:47:27.295Z,25.98
2023-01-02T19:49:56.144Z,25.10
2023-01-02T19:52:25.523Z,26.00
2023-01-02T19:54:54.117Z,28.62
2023-01-02T19:57:24.764Z,25.05
2023-01-02T19:59:56.347Z,21.00
2023-01-02T20:02:27.074Z,23.92
2023-01-02T20:04:57.433Z,24.87
2023-01-02T20:07:26.794Z,21.80
2023-01-02T20:09:56.244Z,25.88
2023-01-02T20:12:30.768Z,22.35
2023-01-02T20:15:01.307Z,26.58
2023-01-02T20:17:31.969Z,23.65
2023-01-02T20:20:01.904Z,22.90
2023-01-02T20:22:30.551Z,23.05
2023-01-02T20:24:59.276Z,21.48
2023-01-02T20:27:27.286Z,20.48
2023-01-02T20:29:58.891Z,22.77
2023-01-02T20:32:27.208Z,22.40
2023-01-02T20:34:55.906Z,21.42
2023-01-02T20:37:26.154Z,22.35
2023-01-02T20:39:56.638Z,22.15
2023-01-02T20:42:26.703Z,21.12
2023-01-02T20:44:57.147Z,23.27
2023-01-02T20:47:25.413Z,21.80
2023-01-02T20:49:54.497Z,24.17
2023-01-02T20:52:23.158Z,23.00
2023-01-02T20:54:51.397Z,22.10
2023-01-02T20:57:21.283Z,22.02
2023-01-02T20:59:49.847Z,21.02
2023-01-02T21:02:18.469Z,20.33
2023-01-02T21:04:47.066Z,21.23
2023-01-02T21:07:16.999Z,20.00
2023-01-02T21:09:44.721Z,22.00
2023-01-02T21:12:32.973Z,20.50
2023-01-02T21:15:01.911Z,18.33
2023-01-02T21:17:31.346Z,18.17
2023-01-02T21:19:59.990Z,17.33
2023-01-02T21:22:28.024Z,18.17
2023-01-02T21:24:55.826Z,18.87
2023-01-02T21:27:23.281Z,20.62
2023-01-02T21:29:51.609Z,18.67
2023-01-02T21:32:19.379Z,18.98
2023-01-02T21:34:47.235Z,19.05
2023-01-02T21:37:15.019Z,20.58
2023-01-02T21:39:42.460Z,18.77
2023-01-02T21:42:18.845Z,20.25
2023-01-02T21:44:47.590Z,21.62
2023-01-02T21:47:16.055Z,19.58
2023-01-02T21:49:44.138Z,18.37
2023-01-02T21:52:12.027Z,18.25
2023-01-02T21:54:39.470Z,17.08
2023-01-02T21:57:06.950Z,17.70
2023-01-02T21:59:34.761Z,16.85
2023-01-02T22:02:04.666Z,21.02
2023-01-02T22:04:33.572Z,19.90
2023-01-02T22:09:51.205Z,19.85
2023-01-02T22:12:18.651Z,20.75
2023-01-02T22:14:46.101Z,21.27
2023-01-02T22:17:14.049Z,24.30
2023-01-02T22:19:41.636Z,23.62
2023-01-02T22:22:09.198Z,21.30
2023-01-02T22:24:43.977Z,20.25
2023-01-02T22:27:14.460Z,19.08
2023-01-02T22:32:34.381Z,16.65
2023-01-02T22:35:04.136Z,16.20
2023-01-02T22:37:31.615Z,17.70
2023-01-02T22:40:01.899Z,16.87
2023-01-02T22:43:00.403Z,15.35
2023-01-02T22:45:31.994Z,16.75
2023-01-02T22:48:03.730Z,14.75
2023-01-02T22:50:39.727Z,13.52
2023-01-02T22:53:34.885Z,15.13
2023-01-02T22:56:10.577Z,15.98
2023-01-02T22:58:38.312Z,15.73
2023-01-02T23:01:19.945Z,16.60
2023-01-02T23:03:49.323Z,17.55
2023-01-02T23:06:21.974Z,15.75
2023-01-02T23:08:51.505Z,15.45
2023-01-02T23:11:20.460Z,16.10
2023-01-02T23:13:53.112Z,16.90
2023-01-02T23:16:42.801Z,14.70
2023-01-02T23:19:16.256Z,16.55
2023-01-02T23:21:49.191Z,16.30
2023-01-02T23:24:19.658Z,16.37
2023-01-02T23:26:50.447Z,15.77
2023-01-02T23:29:18.891Z,14.50
2023-01-02T23:31:48.100Z,14.45
2023-01-02T23:34:18.119Z,16.50
2023-01-02T23:36:45.730Z,16.58
2023-01-02T23:39:15.204Z,16.30
2023-01-02T23:41:43.568Z,16.27
2023-01-02T23:44:11.957Z,17.87
2023-01-02T23:46:40.232Z,16.45
2023-01-02T23:49:08.846Z,16.20
2023-01-02T23:51:37.563Z,16.25
2023-01-02T23:54:05.957Z,13.73
2023-01-02T23:56:36.536Z,15.48
2023-01-02T23:59:06.705Z,14.30
